sensor_id;sensor_type;location;lat;lon;timestamp;P1;durP1;ratioP1;P2;durP2;ratioP2
74920;SDS011;63483;47.384;8.860;2023-03-19T00:02:11;5.10;;;3.20;;
74920;SDS011;63483;47.384;8.860;2023-03-19T00:04:37;4.83;;;3.13;;
74920;SDS011;63483;47.384;8.860;2023-03-19T00:07:02;6.03;;;3.60;;
74920;SDS011;63483;47.384;8.860;2023-03-19T00:09:27;4.67;;;2.90;;
74920;SDS011;63483;47.384;8.860;2023-03-19T00:11:53;4.10;;;2.60;;
74920;SDS011;63483;47.384;8.860;2023-03-19T00:14:18;6.67;;;3.47;;
74920;SDS011;63483;47.384;8.860;2023-03-19T00:16:44;6.47;;;3.40;;
74920;SDS011;63483;47.384;8.860;2023-03-19T00:19:09;6.30;;;3.27;;
74920;SDS011;63483;47.384;8.860;2023-03-19T00:21:34;6.87;;;3.20;;
74920;SDS011;63483;47.384;8.860;2023-03-19T00:24:00;4.22;;;3.20;;
74920;SDS011;63483;47.384;8.860;2023-03-19T00:26:27;5.00;;;2.83;;
74920;SDS011;63483;47.384;8.860;2023-03-19T00:28:54;4.53;;;2.53;;
74920;SDS011;63483;47.384;8.860;2023-03-19T00:31:20;4.97;;;2.67;;
74920;SDS011;63483;47.384;8.860;2023-03-19T00:33:46;4.28;;;3.03;;
74920;SDS011;63483;47.384;8.860;2023-03-19T00:36:11;7.10;;;2.93;;
74920;SDS011;63483;47.384;8.860;2023-03-19T00:38:38;4.63;;;2.85;;
74920;SDS011;63483;47.384;8.860;2023-03-19T00:41:04;5.50;;;2.63;;
74920;SDS011;63483;47.384;8.860;2023-03-19T00:43:30;3.63;;;2.23;;
74920;SDS011;63483;47.384;8.860;2023-03-19T00:45:56;4.70;;;2.55;;
74920;SDS011;63483;47.384;8.860;2023-03-19T00:48:21;4.30;;;2.95;;
74920;SDS011;63483;47.384;8.860;2023-03-19T00:50:48;4.77;;;2.60;;
74920;SDS011;63483;47.384;8.860;2023-03-19T00:53:13;4.72;;;2.83;;
74920;SDS011;63483;47.384;8.860;2023-03-19T00:55:39;4.63;;;2.50;;
74920;SDS011;63483;47.384;8.860;2023-03-19T00:58:04;5.33;;;2.40;;
74920;SDS011;63483;47.384;8.860;2023-03-19T01:00:31;5.88;;;2.47;;
74920;SDS011;63483;47.384;8.860;2023-03-19T01:02:57;4.10;;;2.50;;
74920;SDS011;63483;47.384;8.860;2023-03-19T01:05:23;4.80;;;2.67;;
74920;SDS011;63483;47.384;8.860;2023-03-19T01:07:49;4.80;;;2.88;;
74920;SDS011;63483;47.384;8.860;2023-03-19T01:10:16;3.97;;;3.17;;
74920;SDS011;63483;47.384;8.860;2023-03-19T01:12:42;4.37;;;2.47;;
74920;SDS011;63483;47.384;8.860;2023-03-19T01:15:08;4.95;;;2.50;;
74920;SDS011;63483;47.384;8.860;2023-03-19T01:17:33;5.57;;;2.37;;
74920;SDS011;63483;47.384;8.860;2023-03-19T01:19:59;4.30;;;2.50;;
74920;SDS011;63483;47.384;8.860;2023-03-19T01:22:24;6.00;;;2.80;;
74920;SDS011;63483;47.384;8.860;2023-03-19T01:24:50;4.77;;;2.70;;
74920;SDS011;63483;47.384;8.860;2023-03-19T01:27:15;5.93;;;2.73;;
74920;SDS011;63483;47.384;8.860;2023-03-19T01:29:41;5.47;;;2.70;;
74920;SDS011;63483;47.384;8.860;2023-03-19T01:32:06;4.93;;;2.53;;
74920;SDS011;63483;47.384;8.860;2023-03-19T01:34:32;6.18;;;3.08;;
74920;SDS011;63483;47.384;8.860;2023-03-19T01:36:57;6.10;;;2.57;;
74920;SDS011;63483;47.384;8.860;2023-03-19T01:39:22;6.83;;;2.63;;
74920;SDS011;63483;47.384;8.860;2023-03-19T01:41:48;6.07;;;2.90;;
74920;SDS011;63483;47.384;8.860;2023-03-19T01:46:47;5.80;;;3.20;;
74920;SDS011;63483;47.384;8.860;2023-03-19T01:49:13;4.03;;;2.67;;
74920;SDS011;63483;47.384;8.860;2023-03-19T01:51:38;4.57;;;2.63;;
74920;SDS011;63483;47.384;8.860;2023-03-19T01:54:11;4.80;;;2.35;;
74920;SDS011;63483;47.384;8.860;2023-03-19T01:56:39;5.20;;;2.43;;
74920;SDS011;63483;47.384;8.860;2023-03-19T01:59:26;6.75;;;2.40;;
74920;SDS011;63483;47.384;8.860;2023-03-19T02:02:00;5.15;;;2.55;;
74920;SDS011;63483;47.384;8.860;2023-03-19T02:04:28;4.97;;;2.78;;
74920;SDS011;63483;47.384;8.860;2023-03-19T02:06:57;3.97;;;2.22;;
74920;SDS011;63483;47.384;8.860;2023-03-19T02:09:24;5.23;;;2.73;;
74920;SDS011;63483;47.384;8.860;2023-03-19T02:11:52;4.45;;;2.92;;
74920;SDS011;63483;47.384;8.860;2023-03-19T02:14:18;3.80;;;2.25;;
74920;SDS011;63483;47.384;8.860;2023-03-19T02:16:44;5.27;;;2.83;;
74920;SDS011;63483;47.384;8.860;2023-03-19T02:19:11;5.13;;;2.60;;
74920;SDS011;63483;47.384;8.860;2023-03-19T02:21:40;5.07;;;2.90;;
74920;SDS011;63483;47.384;8.860;2023-03-19T02:24:19;5.63;;;2.60;;
74920;SDS011;63483;47.384;8.860;2023-03-19T02:26:50;8.23;;;2.65;;
74920;SDS011;63483;47.384;8.860;2023-03-19T02:29:16;5.30;;;2.57;;
74920;SDS011;63483;47.384;8.860;2023-03-19T02:31:41;4.80;;;2.65;;
74920;SDS011;63483;47.384;8.860;2023-03-19T02:36:40;4.93;;;2.85;;
74920;SDS011;63483;47.384;8.860;2023-03-19T02:39:17;6.30;;;2.80;;
74920;SDS011;63483;47.384;8.860;2023-03-19T02:41:50;3.67;;;2.58;;
74920;SDS011;63483;47.384;8.860;2023-03-19T02:44:18;5.28;;;2.83;;
74920;SDS011;63483;47.384;8.860;2023-03-19T02:46:44;6.37;;;2.80;;
74920;SDS011;63483;47.384;8.860;2023-03-19T02:49:09;5.15;;;3.25;;
74920;SDS011;63483;47.384;8.860;2023-03-19T02:51:35;7.43;;;3.23;;
74920;SDS011;63483;47.384;8.860;2023-03-19T02:54:01;5.40;;;2.78;;
74920;SDS011;63483;47.384;8.860;2023-03-19T02:56:27;7.65;;;2.78;;
74920;SDS011;63483;47.384;8.860;2023-03-19T02:58:52;4.27;;;3.03;;
74920;SDS011;63483;47.384;8.860;2023-03-19T03:01:18;7.17;;;3.07;;
74920;SDS011;63483;47.384;8.860;2023-03-19T03:03:43;5.50;;;2.93;;
74920;SDS011;63483;47.384;8.860;2023-03-19T03:06:08;4.70;;;2.80;;
74920;SDS011;63483;47.384;8.860;2023-03-19T03:08:34;4.87;;;2.60;;
74920;SDS011;63483;47.384;8.860;2023-03-19T03:11:00;6.07;;;2.72;;
74920;SDS011;63483;47.384;8.860;2023-03-19T03:13:26;5.00;;;2.78;;
74920;SDS011;63483;47.384;8.860;2023-03-19T03:15:51;4.17;;;3.00;;
74920;SDS011;63483;47.384;8.860;2023-03-19T03:18:17;4.80;;;2.40;;
74920;SDS011;63483;47.384;8.860;2023-03-19T03:20:43;5.27;;;2.50;;
74920;SDS011;63483;47.384;8.860;2023-03-19T03:23:09;4.75;;;2.78;;
74920;SDS011;63483;47.384;8.860;2023-03-19T03:25:35;5.13;;;2.70;;
74920;SDS011;63483;47.384;8.860;2023-03-19T03:28:00;6.63;;;3.07;;
74920;SDS011;63483;47.384;8.860;2023-03-19T03:30:26;5.10;;;2.50;;
74920;SDS011;63483;47.384;8.860;2023-03-19T03:32:51;5.33;;;3.00;;
74920;SDS011;63483;47.384;8.860;2023-03-19T03:35:17;5.50;;;2.85;;
74920;SDS011;63483;47.384;8.860;2023-03-19T03:37:46;6.47;;;2.67;;
74920;SDS011;63483;47.384;8.860;2023-03-19T03:40:13;4.60;;;2.80;;
74920;SDS011;63483;47.384;8.860;2023-03-19T03:42:40;4.47;;;2.63;;
74920;SDS011;63483;47.384;8.860;2023-03-19T03:45:06;4.80;;;2.92;;
74920;SDS011;63483;47.384;8.860;2023-03-19T03:47:33;6.10;;;2.72;;
74920;SDS011;63483;47.384;8.860;2023-03-19T03:49:58;7.47;;;2.97;;
74920;SDS011;63483;47.384;8.860;2023-03-19T03:52:24;5.53;;;2.90;;
74920;SDS011;63483;47.384;8.860;2023-03-19T03:54:50;5.10;;;2.85;;
74920;SDS011;63483;47.384;8.860;2023-03-19T03:57:15;7.17;;;3.03;;
74920;SDS011;63483;47.384;8.860;2023-03-19T03:59:40;6.60;;;3.00;;
74920;SDS011;63483;47.384;8.860;2023-03-19T04:02:06;5.77;;;2.50;;
74920;SDS011;63483;47.384;8.860;2023-03-19T04:04:32;5.07;;;2.10;;
74920;SDS011;63483;47.384;8.860;2023-03-19T04:06:57;4.70;;;2.23;;
74920;SDS011;63483;47.384;8.860;2023-03-19T04:09:23;4.67;;;2.50;;
74920;SDS011;63483;47.384;8.860;2023-03-19T04:11:48;7.57;;;2.77;;
74920;SDS011;63483;47.384;8.860;2023-03-19T04:14:13;3.78;;;2.22;;
74920;SDS011;63483;47.384;8.860;2023-03-19T04:16:39;5.40;;;3.23;;
74920;SDS011;63483;47.384;8.860;2023-03-19T04:19:04;4.47;;;2.50;;
74920;SDS011;63483;47.384;8.860;2023-03-19T04:21:31;5.15;;;2.17;;
74920;SDS011;63483;47.384;8.860;2023-03-19T04:23:57;5.53;;;2.72;;
74920;SDS011;63483;47.384;8.860;2023-03-19T04:26:22;5.77;;;3.30;;
74920;SDS011;63483;47.384;8.860;2023-03-19T04:28:48;6.07;;;2.97;;
74920;SDS011;63483;47.384;8.860;2023-03-19T04:31:13;4.00;;;2.47;;
74920;SDS011;63483;47.384;8.860;2023-03-19T04:33:39;3.87;;;2.57;;
74920;SDS011;63483;47.384;8.860;2023-03-19T04:36:04;5.03;;;3.07;;
74920;SDS011;63483;47.384;8.860;2023-03-19T04:38:31;5.17;;;2.57;;
74920;SDS011;63483;47.384;8.860;2023-03-19T04:40:56;4.75;;;2.83;;
74920;SDS011;63483;47.384;8.860;2023-03-19T04:43:22;5.07;;;2.90;;
74920;SDS011;63483;47.384;8.860;2023-03-19T04:45:48;6.47;;;3.25;;
74920;SDS011;63483;47.384;8.860;2023-03-19T04:48:14;5.15;;;2.50;;
74920;SDS011;63483;47.384;8.860;2023-03-19T04:50:41;4.97;;;2.80;;
74920;SDS011;63483;47.384;8.860;2023-03-19T04:53:06;4.93;;;2.55;;
74920;SDS011;63483;47.384;8.860;2023-03-19T04:55:32;5.20;;;3.20;;
74920;SDS011;63483;47.384;8.860;2023-03-19T04:57:58;7.43;;;3.00;;
74920;SDS011;63483;47.384;8.860;2023-03-19T05:00:24;7.30;;;2.92;;
74920;SDS011;63483;47.384;8.860;2023-03-19T05:02:50;6.70;;;3.35;;
74920;SDS011;63483;47.384;8.860;2023-03-19T05:05:15;6.43;;;3.13;;
74920;SDS011;63483;47.384;8.860;2023-03-19T05:07:41;6.30;;;3.70;;
74920;SDS011;63483;47.384;8.860;2023-03-19T05:10:06;8.60;;;2.63;;
74920;SDS011;63483;47.384;8.860;2023-03-19T05:12:33;5.75;;;2.50;;
74920;SDS011;63483;47.384;8.860;2023-03-19T05:14:59;5.57;;;2.95;;
74920;SDS011;63483;47.384;8.860;2023-03-19T05:17:24;5.23;;;2.93;;
74920;SDS011;63483;47.384;8.860;2023-03-19T05:19:50;3.93;;;2.23;;
74920;SDS011;63483;47.384;8.860;2023-03-19T05:22:16;6.30;;;3.20;;
74920;SDS011;63483;47.384;8.860;2023-03-19T05:24:42;6.22;;;3.03;;
74920;SDS011;63483;47.384;8.860;2023-03-19T05:27:08;4.83;;;2.77;;
74920;SDS011;63483;47.384;8.860;2023-03-19T05:29:33;5.27;;;3.10;;
74920;SDS011;63483;47.384;8.860;2023-03-19T05:31:58;6.37;;;3.23;;
74920;SDS011;63483;47.384;8.860;2023-03-19T05:34:27;6.07;;;3.80;;
74920;SDS011;63483;47.384;8.860;2023-03-19T05:36:52;4.55;;;2.95;;
74920;SDS011;63483;47.384;8.860;2023-03-19T05:39:18;5.83;;;3.27;;
74920;SDS011;63483;47.384;8.860;2023-03-19T05:41:43;4.97;;;2.47;;
74920;SDS011;63483;47.384;8.860;2023-03-19T05:44:09;5.72;;;2.90;;
74920;SDS011;63483;47.384;8.860;2023-03-19T05:46:35;6.13;;;3.03;;
74920;SDS011;63483;47.384;8.860;2023-03-19T05:49:00;4.53;;;2.40;;
74920;SDS011;63483;47.384;8.860;2023-03-19T05:51:25;7.60;;;3.65;;
74920;SDS011;63483;47.384;8.860;2023-03-19T05:53:51;4.70;;;2.60;;
74920;SDS011;63483;47.384;8.860;2023-03-19T05:56:16;4.20;;;2.40;;
74920;SDS011;63483;47.384;8.860;2023-03-19T05:58:42;5.13;;;2.60;;
74920;SDS011;63483;47.384;8.860;2023-03-19T06:01:07;4.03;;;2.70;;
74920;SDS011;63483;47.384;8.860;2023-03-19T06:03:32;6.13;;;3.17;;
74920;SDS011;63483;47.384;8.860;2023-03-19T06:05:58;5.57;;;2.40;;
74920;SDS011;63483;47.384;8.860;2023-03-19T06:08:23;4.63;;;2.85;;
74920;SDS011;63483;47.384;8.860;2023-03-19T06:10:49;4.53;;;2.30;;
74920;SDS011;63483;47.384;8.860;2023-03-19T06:13:15;5.00;;;3.00;;
74920;SDS011;63483;47.384;8.860;2023-03-19T06:15:40;6.20;;;2.53;;
74920;SDS011;63483;47.384;8.860;2023-03-19T06:18:06;5.13;;;2.60;;
74920;SDS011;63483;47.384;8.860;2023-03-19T06:20:32;4.97;;;2.58;;
74920;SDS011;63483;47.384;8.860;2023-03-19T06:22:57;5.40;;;2.67;;
74920;SDS011;63483;47.384;8.860;2023-03-19T06:25:23;11.20;;;2.93;;
74920;SDS011;63483;47.384;8.860;2023-03-19T06:27:48;4.17;;;2.73;;
74920;SDS011;63483;47.384;8.860;2023-03-19T06:30:13;4.17;;;2.47;;
74920;SDS011;63483;47.384;8.860;2023-03-19T06:32:39;4.97;;;2.42;;
74920;SDS011;63483;47.384;8.860;2023-03-19T06:35:05;5.37;;;2.20;;
74920;SDS011;63483;47.384;8.860;2023-03-19T06:37:32;6.63;;;2.33;;
74920;SDS011;63483;47.384;8.860;2023-03-19T06:39:57;6.10;;;3.00;;
74920;SDS011;63483;47.384;8.860;2023-03-19T06:42:23;3.73;;;2.50;;
74920;SDS011;63483;47.384;8.860;2023-03-19T06:44:48;4.70;;;2.67;;
74920;SDS011;63483;47.384;8.860;2023-03-19T06:47:13;6.63;;;2.87;;
74920;SDS011;63483;47.384;8.860;2023-03-19T06:49:39;4.43;;;2.80;;
74920;SDS011;63483;47.384;8.860;2023-03-19T06:52:05;6.17;;;2.70;;
74920;SDS011;63483;47.384;8.860;2023-03-19T06:54:30;6.43;;;2.65;;
74920;SDS011;63483;47.384;8.860;2023-03-19T06:56:56;4.87;;;2.70;;
74920;SDS011;63483;47.384;8.860;2023-03-19T06:59:21;6.70;;;3.00;;
74920;SDS011;63483;47.384;8.860;2023-03-19T07:01:47;5.88;;;3.45;;
74920;SDS011;63483;47.384;8.860;2023-03-19T07:04:12;7.23;;;2.87;;
74920;SDS011;63483;47.384;8.860;2023-03-19T07:06:37;4.77;;;3.33;;
74920;SDS011;63483;47.384;8.860;2023-03-19T07:09:03;4.93;;;3.10;;
74920;SDS011;63483;47.384;8.860;2023-03-19T07:11:28;5.80;;;2.83;;
74920;SDS011;63483;47.384;8.860;2023-03-19T07:13:53;6.87;;;4.07;;
74920;SDS011;63483;47.384;8.860;2023-03-19T07:16:19;6.65;;;4.15;;
74920;SDS011;63483;47.384;8.860;2023-03-19T07:18:44;5.57;;;3.40;;
74920;SDS011;63483;47.384;8.860;2023-03-19T07:21:10;4.90;;;2.73;;
74920;SDS011;63483;47.384;8.860;2023-03-19T07:23:35;7.53;;;4.30;;
74920;SDS011;63483;47.384;8.860;2023-03-19T07:26:00;5.77;;;3.83;;
74920;SDS011;63483;47.384;8.860;2023-03-19T07:28:26;5.83;;;3.57;;
74920;SDS011;63483;47.384;8.860;2023-03-19T07:30:51;6.57;;;3.30;;
74920;SDS011;63483;47.384;8.860;2023-03-19T07:33:17;6.23;;;3.33;;
74920;SDS011;63483;47.384;8.860;2023-03-19T07:35:43;6.63;;;3.78;;
74920;SDS011;63483;47.384;8.860;2023-03-19T07:38:08;7.60;;;3.30;;
74920;SDS011;63483;47.384;8.860;2023-03-19T07:40:33;9.27;;;3.63;;
74920;SDS011;63483;47.384;8.860;2023-03-19T07:42:59;7.17;;;3.50;;
74920;SDS011;63483;47.384;8.860;2023-03-19T07:45:24;6.50;;;3.20;;
74920;SDS011;63483;47.384;8.860;2023-03-19T07:47:50;6.90;;;3.40;;
74920;SDS011;63483;47.384;8.860;2023-03-19T07:50:15;6.60;;;3.40;;
74920;SDS011;63483;47.384;8.860;2023-03-19T07:52:41;5.53;;;3.00;;
74920;SDS011;63483;47.384;8.860;2023-03-19T07:55:09;5.27;;;3.27;;
74920;SDS011;63483;47.384;8.860;2023-03-19T07:57:35;6.63;;;2.93;;
74920;SDS011;63483;47.384;8.860;2023-03-19T08:00:00;6.43;;;3.73;;
74920;SDS011;63483;47.384;8.860;2023-03-19T08:02:26;7.10;;;3.53;;
74920;SDS011;63483;47.384;8.860;2023-03-19T08:04:51;8.33;;;4.93;;
74920;SDS011;63483;47.384;8.860;2023-03-19T08:07:16;9.20;;;5.13;;
74920;SDS011;63483;47.384;8.860;2023-03-19T08:09:41;5.83;;;3.53;;
74920;SDS011;63483;47.384;8.860;2023-03-19T08:12:07;5.60;;;2.88;;
74920;SDS011;63483;47.384;8.860;2023-03-19T08:14:33;5.30;;;2.70;;
74920;SDS011;63483;47.384;8.860;2023-03-19T08:16:58;6.23;;;2.33;;
74920;SDS011;63483;47.384;8.860;2023-03-19T08:19:24;7.43;;;2.53;;
74920;SDS011;63483;47.384;8.860;2023-03-19T08:21:49;5.70;;;2.60;;
74920;SDS011;63483;47.384;8.860;2023-03-19T08:24:15;5.00;;;2.10;;
74920;SDS011;63483;47.384;8.860;2023-03-19T08:26:41;4.95;;;1.90;;
74920;SDS011;63483;47.384;8.860;2023-03-19T08:29:06;5.20;;;2.47;;
74920;SDS011;63483;47.384;8.860;2023-03-19T08:31:32;5.13;;;3.15;;
74920;SDS011;63483;47.384;8.860;2023-03-19T08:33:57;6.70;;;3.13;;
74920;SDS011;63483;47.384;8.860;2023-03-19T08:36:26;7.55;;;3.22;;
74920;SDS011;63483;47.384;8.860;2023-03-19T08:38:52;6.50;;;3.23;;
74920;SDS011;63483;47.384;8.860;2023-03-19T08:41:19;6.93;;;3.30;;
74920;SDS011;63483;47.384;8.860;2023-03-19T08:43:45;7.30;;;3.22;;
74920;SDS011;63483;47.384;8.860;2023-03-19T08:46:10;5.70;;;2.33;;
74920;SDS011;63483;47.384;8.860;2023-03-19T08:48:36;7.43;;;3.60;;
74920;SDS011;63483;47.384;8.860;2023-03-19T08:51:01;7.43;;;4.10;;
74920;SDS011;63483;47.384;8.860;2023-03-19T08:53:29;8.23;;;3.78;;
74920;SDS011;63483;47.384;8.860;2023-03-19T08:55:57;6.88;;;4.10;;
74920;SDS011;63483;47.384;8.860;2023-03-19T08:58:24;8.05;;;2.72;;
74920;SDS011;63483;47.384;8.860;2023-03-19T09:00:50;5.35;;;2.35;;
74920;SDS011;63483;47.384;8.860;2023-03-19T09:03:17;4.43;;;2.70;;
74920;SDS011;63483;47.384;8.860;2023-03-19T09:05:44;4.28;;;2.03;;
74920;SDS011;63483;47.384;8.860;2023-03-19T09:08:10;3.45;;;2.30;;
74920;SDS011;63483;47.384;8.860;2023-03-19T09:10:35;3.93;;;2.50;;
74920;SDS011;63483;47.384;8.860;2023-03-19T09:13:01;5.93;;;2.40;;
74920;SDS011;63483;47.384;8.860;2023-03-19T09:15:27;3.67;;;1.90;;
74920;SDS011;63483;47.384;8.860;2023-03-19T09:17:52;4.90;;;2.10;;
74920;SDS011;63483;47.384;8.860;2023-03-19T09:20:18;4.22;;;2.03;;
74920;SDS011;63483;47.384;8.860;2023-03-19T09:22:43;3.33;;;1.93;;
74920;SDS011;63483;47.384;8.860;2023-03-19T09:25:09;4.43;;;2.27;;
74920;SDS011;63483;47.384;8.860;2023-03-19T09:27:35;4.93;;;1.90;;
74920;SDS011;63483;47.384;8.860;2023-03-19T09:30:01;9.23;;;2.57;;
74920;SDS011;63483;47.384;8.860;2023-03-19T09:32:27;6.90;;;2.65;;
74920;SDS011;63483;47.384;8.860;2023-03-19T09:34:52;4.40;;;2.40;;
74920;SDS011;63483;47.384;8.860;2023-03-19T09:37:18;5.67;;;2.27;;
74920;SDS011;63483;47.384;8.860;2023-03-19T09:39:43;7.10;;;2.47;;
74920;SDS011;63483;47.384;8.860;2023-03-19T09:42:13;3.47;;;1.85;;
74920;SDS011;63483;47.384;8.860;2023-03-19T09:44:43;4.30;;;2.20;;
74920;SDS011;63483;47.384;8.860;2023-03-19T09:49:49;6.05;;;2.10;;
74920;SDS011;63483;47.384;8.860;2023-03-19T09:52:32;3.95;;;2.17;;
74920;SDS011;63483;47.384;8.860;2023-03-19T09:57:47;3.60;;;2.13;;
74920;SDS011;63483;47.384;8.860;2023-03-19T10:02:42;4.47;;;2.40;;
74920;SDS011;63483;47.384;8.860;2023-03-19T10:05:18;3.85;;;2.38;;
74920;SDS011;63483;47.384;8.860;2023-03-19T10:16:16;3.97;;;1.95;;
74920;SDS011;63483;47.384;8.860;2023-03-19T10:18:46;5.55;;;2.00;;
74920;SDS011;63483;47.384;8.860;2023-03-19T10:23:51;3.70;;;2.22;;
74920;SDS011;63483;47.384;8.860;2023-03-19T10:26:25;4.00;;;2.28;;
74920;SDS011;63483;47.384;8.860;2023-03-19T10:29:14;4.32;;;1.95;;
74920;SDS011;63483;47.384;8.860;2023-03-19T10:31:52;3.80;;;2.03;;
74920;SDS011;63483;47.384;8.860;2023-03-19T10:36:59;3.80;;;2.30;;
74920;SDS011;63483;47.384;8.860;2023-03-19T10:39:30;4.28;;;2.67;;
74920;SDS011;63483;47.384;8.860;2023-03-19T10:44:52;3.50;;;2.10;;
74920;SDS011;63483;47.384;8.860;2023-03-19T10:47:24;4.37;;;2.57;;
74920;SDS011;63483;47.384;8.860;2023-03-19T10:49:50;4.07;;;2.70;;
74920;SDS011;63483;47.384;8.860;2023-03-19T10:52:48;4.80;;;2.60;;
74920;SDS011;63483;47.384;8.860;2023-03-19T10:55:14;4.70;;;2.38;;
74920;SDS011;63483;47.384;8.860;2023-03-19T10:57:42;3.85;;;2.38;;
74920;SDS011;63483;47.384;8.860;2023-03-19T11:00:15;4.38;;;2.25;;
74920;SDS011;63483;47.384;8.860;2023-03-19T11:02:45;3.58;;;1.90;;
74920;SDS011;63483;47.384;8.860;2023-03-19T11:07:38;4.13;;;2.40;;
74920;SDS011;63483;47.384;8.860;2023-03-19T11:10:08;3.73;;;2.03;;
74920;SDS011;63483;47.384;8.860;2023-03-19T11:12:38;4.43;;;2.22;;
74920;SDS011;63483;47.384;8.860;2023-03-19T11:15:04;3.23;;;2.10;;
74920;SDS011;63483;47.384;8.860;2023-03-19T11:17:45;3.05;;;2.50;;
74920;SDS011;63483;47.384;8.860;2023-03-19T11:22:46;4.68;;;2.00;;
74920;SDS011;63483;47.384;8.860;2023-03-19T11:25:17;5.05;;;3.03;;
74920;SDS011;63483;47.384;8.860;2023-03-19T11:28:10;4.83;;;2.70;;
74920;SDS011;63483;47.384;8.860;2023-03-19T11:41:45;3.50;;;2.10;;
74920;SDS011;63483;47.384;8.860;2023-03-19T11:47:11;3.85;;;2.15;;
74920;SDS011;63483;47.384;8.860;2023-03-19T11:52:29;5.80;;;2.85;;
74920;SDS011;63483;47.384;8.860;2023-03-19T11:55:07;3.53;;;2.87;;
74920;SDS011;63483;47.384;8.860;2023-03-19T12:02:53;4.13;;;2.60;;
74920;SDS011;63483;47.384;8.860;2023-03-19T12:19:10;3.97;;;2.63;;
74920;SDS011;63483;47.384;8.860;2023-03-19T12:24:59;4.32;;;1.95;;
74920;SDS011;63483;47.384;8.860;2023-03-19T12:27:54;3.50;;;2.50;;
74920;SDS011;63483;47.384;8.860;2023-03-19T12:35:34;3.63;;;2.20;;
74920;SDS011;63483;47.384;8.860;2023-03-19T12:40:52;4.47;;;2.30;;
74920;SDS011;63483;47.384;8.860;2023-03-19T12:43:29;3.17;;;2.05;;
74920;SDS011;63483;47.384;8.860;2023-03-19T12:46:08;4.20;;;1.70;;
74920;SDS011;63483;47.384;8.860;2023-03-19T12:51:26;3.47;;;1.80;;
74920;SDS011;63483;47.384;8.860;2023-03-19T13:10:37;6.32;;;2.28;;
74920;SDS011;63483;47.384;8.860;2023-03-19T13:13:12;3.10;;;2.10;;
74920;SDS011;63483;47.384;8.860;2023-03-19T13:15:44;4.80;;;2.17;;
74920;SDS011;63483;47.384;8.860;2023-03-19T13:20:55;4.82;;;1.92;;
74920;SDS011;63483;47.384;8.860;2023-03-19T13:23:42;3.80;;;1.97;;
74920;SDS011;63483;47.384;8.860;2023-03-19T13:26:12;4.38;;;2.20;;
74920;SDS011;63483;47.384;8.860;2023-03-19T13:28:52;3.47;;;2.10;;
74920;SDS011;63483;47.384;8.860;2023-03-19T13:31:23;4.45;;;2.70;;
74920;SDS011;63483;47.384;8.860;2023-03-19T13:34:13;3.35;;;1.80;;
74920;SDS011;63483;47.384;8.860;2023-03-19T13:36:42;5.10;;;2.30;;
74920;SDS011;63483;47.384;8.860;2023-03-19T13:39:15;5.80;;;2.75;;
74920;SDS011;63483;47.384;8.860;2023-03-19T13:41:51;4.03;;;3.08;;
74920;SDS011;63483;47.384;8.860;2023-03-19T13:44:38;5.65;;;2.63;;
74920;SDS011;63483;47.384;8.860;2023-03-19T13:56:09;5.68;;;3.85;;
74920;SDS011;63483;47.384;8.860;2023-03-19T14:01:01;4.20;;;2.80;;
74920;SDS011;63483;47.384;8.860;2023-03-19T14:03:32;6.80;;;3.87;;
74920;SDS011;63483;47.384;8.860;2023-03-19T14:05:59;3.38;;;3.05;;
74920;SDS011;63483;47.384;8.860;2023-03-19T14:08:31;5.80;;;2.83;;
74920;SDS011;63483;47.384;8.860;2023-03-19T14:11:07;5.90;;;2.67;;
74920;SDS011;63483;47.384;8.860;2023-03-19T14:13:36;4.13;;;2.55;;
74920;SDS011;63483;47.384;8.860;2023-03-19T14:16:28;4.00;;;2.70;;
74920;SDS011;63483;47.384;8.860;2023-03-19T14:18:57;4.97;;;2.60;;
74920;SDS011;63483;47.384;8.860;2023-03-19T14:21:33;4.45;;;3.10;;
74920;SDS011;63483;47.384;8.860;2023-03-19T14:27:21;5.30;;;3.40;;
74920;SDS011;63483;47.384;8.860;2023-03-19T14:30:01;4.30;;;3.10;;
74920;SDS011;63483;47.384;8.860;2023-03-19T14:32:35;5.68;;;3.10;;
74920;SDS011;63483;47.384;8.860;2023-03-19T14:35:05;4.93;;;2.78;;
74920;SDS011;63483;47.384;8.860;2023-03-19T14:42:46;4.53;;;3.40;;
74920;SDS011;63483;47.384;8.860;2023-03-19T14:53:47;5.00;;;3.43;;
74920;SDS011;63483;47.384;8.860;2023-03-19T14:58:52;5.25;;;3.42;;
74920;SDS011;63483;47.384;8.860;2023-03-19T15:01:24;5.45;;;3.05;;
74920;SDS011;63483;47.384;8.860;2023-03-19T15:03:52;4.93;;;3.87;;
74920;SDS011;63483;47.384;8.860;2023-03-19T15:06:19;6.95;;;4.00;;
74920;SDS011;63483;47.384;8.860;2023-03-19T15:08:45;6.15;;;4.15;;
74920;SDS011;63483;47.384;8.860;2023-03-19T15:13:46;4.97;;;3.92;;
74920;SDS011;63483;47.384;8.860;2023-03-19T15:18:57;5.38;;;3.50;;
74920;SDS011;63483;47.384;8.860;2023-03-19T15:21:23;5.57;;;4.05;;
74920;SDS011;63483;47.384;8.860;2023-03-19T15:23:49;8.80;;;3.83;;
74920;SDS011;63483;47.384;8.860;2023-03-19T15:26:15;6.22;;;3.97;;
74920;SDS011;63483;47.384;8.860;2023-03-19T15:28:53;6.65;;;4.10;;
74920;SDS011;63483;47.384;8.860;2023-03-19T15:31:18;4.93;;;4.10;;
74920;SDS011;63483;47.384;8.860;2023-03-19T15:33:44;5.17;;;3.57;;
74920;SDS011;63483;47.384;8.860;2023-03-19T15:39:03;4.47;;;3.17;;
74920;SDS011;63483;47.384;8.860;2023-03-19T15:41:34;5.90;;;2.92;;
74920;SDS011;63483;47.384;8.860;2023-03-19T15:44:04;5.38;;;3.40;;
74920;SDS011;63483;47.384;8.860;2023-03-19T15:46:35;4.72;;;3.42;;
74920;SDS011;63483;47.384;8.860;2023-03-19T15:49:20;6.97;;;4.13;;
74920;SDS011;63483;47.384;8.860;2023-03-19T15:51:54;7.20;;;4.28;;
74920;SDS011;63483;47.384;8.860;2023-03-19T15:54:26;4.00;;;2.67;;
74920;SDS011;63483;47.384;8.860;2023-03-19T15:56:52;3.03;;;2.17;;
74920;SDS011;63483;47.384;8.860;2023-03-19T15:59:20;5.77;;;2.77;;
74920;SDS011;63483;47.384;8.860;2023-03-19T16:01:50;3.90;;;2.72;;
74920;SDS011;63483;47.384;8.860;2023-03-19T16:04:17;4.07;;;2.20;;
74920;SDS011;63483;47.384;8.860;2023-03-19T16:06:47;4.15;;;2.53;;
74920;SDS011;63483;47.384;8.860;2023-03-19T16:11:54;3.85;;;2.25;;
74920;SDS011;63483;47.384;8.860;2023-03-19T16:14:21;4.07;;;2.87;;
74920;SDS011;63483;47.384;8.860;2023-03-19T16:16:57;5.15;;;2.85;;
74920;SDS011;63483;47.384;8.860;2023-03-19T16:21:59;3.33;;;3.00;;
74920;SDS011;63483;47.384;8.860;2023-03-19T16:26:58;3.70;;;2.60;;
74920;SDS011;63483;47.384;8.860;2023-03-19T16:29:28;3.85;;;2.75;;
74920;SDS011;63483;47.384;8.860;2023-03-19T16:31:59;4.30;;;2.97;;
74920;SDS011;63483;47.384;8.860;2023-03-19T16:36:57;4.18;;;3.70;;
74920;SDS011;63483;47.384;8.860;2023-03-19T16:39:25;6.05;;;3.40;;
74920;SDS011;63483;47.384;8.860;2023-03-19T16:44:50;6.05;;;3.33;;
74920;SDS011;63483;47.384;8.860;2023-03-19T16:47:16;4.20;;;2.90;;
74920;SDS011;63483;47.384;8.860;2023-03-19T16:49:41;5.03;;;3.60;;
74920;SDS011;63483;47.384;8.860;2023-03-19T16:52:12;4.47;;;3.00;;
74920;SDS011;63483;47.384;8.860;2023-03-19T16:54:40;4.43;;;2.92;;
74920;SDS011;63483;47.384;8.860;2023-03-19T16:57:07;3.53;;;2.67;;
74920;SDS011;63483;47.384;8.860;2023-03-19T16:59:36;4.47;;;3.30;;
74920;SDS011;63483;47.384;8.860;2023-03-19T17:02:08;5.33;;;3.70;;
74920;SDS011;63483;47.384;8.860;2023-03-19T17:04:35;4.57;;;3.15;;
74920;SDS011;63483;47.384;8.860;2023-03-19T17:07:00;4.87;;;2.80;;
74920;SDS011;63483;47.384;8.860;2023-03-19T17:09:25;4.43;;;3.30;;
74920;SDS011;63483;47.384;8.860;2023-03-19T17:11:51;3.90;;;2.58;;
74920;SDS011;63483;47.384;8.860;2023-03-19T17:14:19;4.60;;;3.07;;
74920;SDS011;63483;47.384;8.860;2023-03-19T17:16:46;3.78;;;2.80;;
74920;SDS011;63483;47.384;8.860;2023-03-19T17:19:20;4.22;;;2.60;;
74920;SDS011;63483;47.384;8.860;2023-03-19T17:21:51;4.57;;;2.50;;
74920;SDS011;63483;47.384;8.860;2023-03-19T17:26:47;4.10;;;2.87;;
74920;SDS011;63483;47.384;8.860;2023-03-19T17:29:12;3.28;;;1.83;;
74920;SDS011;63483;47.384;8.860;2023-03-19T17:31:38;3.30;;;2.40;;